KDLS/DLS METAR and TAF weather

Enter ICAO airport designator
Station Type Date Time Source
KDLS METAR 2019/08/24 19:53 UTC NOAA

KDLS 241953Z AUTO 31017G25KT 10SM CLR 27/09 A2990 RMK AO2 PK WND 32028/1933 SLP121 T02720094


Station Type Date Time Source
KDLS Decoded METAR 2019/08/24 19:53 UTC NOAA

Station name not available
Aug 24, 2019 - 03:53 PM EDT / 2019.08.24 1953 UTC
Wind: from the NW (310 degrees) at 20 MPH (17 KT) gusting to 29 MPH (25 KT):0
Visibility: 10 mile(s):0
Sky conditions: clear
Temperature: 81.0 F (27.2 C)
Dew Point: 48.9 F (9.4 C)
Relative Humidity: 32%
Pressure (altimeter): 29.9 in. Hg (1012 hPa)
ob: KDLS 241953Z AUTO 31017G25KT 10SM CLR 27/09 A2990 RMK AO2 PK WND 32028/1933 SLP121 T02720094
cycle: 20

Station Type Date Time Source
KDLS TAF 2019/08/24 18:39 UTC NOAA

TAF KDLS 241737Z 2418/2518 31017G25KT P6SM SKC
FM242100 31021G29KT P6SM SKC
FM250300 30013G21KT P6SM SKC
FM250900 30011KT P6SM FEW250
FM251600 31013G20KT P6SM SKC

Example: see airport list